Latest Weather Observations for Learmonth

IDW60801

Issued at 8:05 pm WST Monday 24 November 2014 (issued every 30 minutes, with the page automatically refreshed every 10 minutes)

About weather observations | Map of weather stations | Latest weather observations for WA | Other Formats
Station Details ID: 005007 Name: LEARMONTH AIRPORT Lat: -22.24 Lon: 114.10 Height: 5.0 m
Data from the previous 72 hours. | See also: Recent months at Learmonth
Date/Time
WST
Temp
°C
App
Temp
°C
Dew
Point
Rel
Hum
%
Delta-T
°C
Wind Press
QNH
hPa
Press
MSL
hPa
Rain
since 9 am
mm
Dir
 
Spd
km/h
Gust
km/h
Spd
kts
Gust
kts
24/08:00pm 23.5 22.6 18.1 71 3.4 WSW 20 28 11 15 1010.7 - 0.0
24/07:30pm 23.9 21.9 17.5 67 4.0 WSW 24 30 13 16 1010.5 - 0.0
24/07:00pm 24.3 22.4 17.6 66 4.2 WSW 24 32 13 17 1010.2 - 0.0
24/06:30pm 25.7 23.1 16.8 58 5.5 WSW 26 32 14 17 1009.8 - 0.0
24/06:00pm 27.0 24.3 16.5 52 6.5 W 26 33 14 18 1009.5 1009.4 0.0
24/05:30pm 28.1 25.1 16.7 50 7.1 WSW 28 37 15 20 1009.1 - 0.0
24/05:00pm 29.1 25.7 16.8 47 7.7 W 30 37 16 20 1008.8 - 0.0
24/04:30pm 31.6 28.5 15.5 37 10.0 W 26 32 14 17 1008.9 - 0.0
24/04:00pm 32.2 30.3 15.7 37 10.3 W 20 28 11 15 1008.8 - 0.0
24/03:30pm 32.7 30.6 15.1 34 10.9 W 20 28 11 15 1008.9 - 0.0
24/03:00pm 32.9 30.4 15.2 34 11.0 W 22 28 12 15 1009.2 1009.1 0.0
24/02:30pm 33.9 29.8 6.3 18 15.0 N 17 20 9 11 1009.2 - 0.0
24/02:00pm 33.2 29.0 7.5 20 14.2 NNE 19 22 10 12 1009.5 - 0.0
24/01:30pm 33.1 29.5 8.2 21 13.9 NE 17 22 9 12 1009.8 - 0.0
24/01:00pm 32.5 28.9 9.7 24 13.0 NE 19 24 10 13 1010.1 - 0.0
24/12:30pm 32.2 28.9 10.8 27 12.4 ENE 19 24 10 13 1010.2 - 0.0
24/12:00pm 32.1 29.2 12.4 30 11.7 NE 19 22 10 12 1010.6 1010.5 0.0
24/11:30am 32.4 29.8 12.1 29 12.0 ENE 17 20 9 11 1010.7 - 0.0
24/11:00am 32.3 30.6 12.4 29 11.8 E 13 28 7 15 1011.0 - 0.0
24/10:30am 32.2 31.1 12.0 29 11.9 SSW 9 20 5 11 1011.5 - 0.0
24/10:00am 30.3 28.1 10.8 30 11.2 S 13 19 7 10 1011.9 - 0.0
24/09:30am 28.5 27.5 12.2 36 9.5 SSW 9 15 5 8 1012.1 - 0.0
24/09:00am 27.6 25.4 13.2 41 8.5 SSW 17 24 9 13 1012.3 1012.2 0.0
24/08:30am 25.6 23.0 13.7 47 7.0 SSW 20 28 11 15 1012.3 - 0.0
24/08:00am 24.0 20.3 13.9 53 5.9 SSW 26 33 14 18 1012.6 - 0.0
24/07:30am 22.7 18.9 14.6 60 4.8 SSW 28 35 15 19 1012.6 - 0.0
24/07:00am 21.4 18.2 15.2 68 3.7 SSW 26 33 14 18 1012.5 - 0.0
24/06:30am 20.2 17.6 15.8 76 2.6 SSW 24 30 13 16 1012.4 - 0.0
24/06:00am 19.2 17.5 16.2 83 1.8 SSW 20 28 11 15 1012.2 1012.1 0.0
24/05:30am 18.9 17.1 16.0 83 1.7 SSW 20 30 11 16 1011.9 - 0.0
24/05:00am 19.0 16.4 16.0 83 1.8 SSW 24 32 13 17 1011.9 - 0.0
24/04:30am 19.1 16.6 16.1 83 1.8 SSW 24 32 13 17 1011.6 - 0.0
24/04:00am 19.4 16.9 16.2 82 1.9 SSW 24 33 13 18 1011.5 - 0.0
24/03:30am 19.6 17.3 16.6 83 1.8 SSW 24 32 13 17 1011.5 - 0.0
24/03:00am 19.6 17.7 16.8 84 1.7 SSW 22 30 12 16 1011.6 1011.5 0.0
24/02:30am 19.8 17.5 16.7 82 1.9 SSW 24 35 13 19 1011.6 - 0.0
24/02:00am 20.0 17.1 16.2 79 2.3 SSW 26 33 14 18 1011.6 - 0.0
24/01:30am 20.1 17.1 15.9 77 2.5 SSW 26 35 14 19 1011.6 - 0.0
24/01:00am 20.4 17.5 16.1 76 2.6 SSW 26 35 14 19 1012.1 - 0.0
24/12:30am 20.7 17.7 16.7 78 2.4 SSW 28 35 15 19 1012.2 - 0.0
24/12:00am 21.0 18.5 17.2 79 2.3 SSW 26 35 14 19 1012.3 1012.2 0.0
 
Date/Time
WST
Temp
°C
App
Temp
°C
Dew
Point
Rel
Hum
%
Delta-T
°C
Wind Press
QNH
hPa
Press
MSL
hPa
Rain
since 9 am
mm
Dir
 
Spd
km/h
Gust
km/h
Spd
kts
Gust
kts
23/11:30pm 21.1 19.3 17.0 77 2.5 SSW 22 30 12 16 1012.6 - 0.0
23/11:00pm 21.3 18.3 16.7 75 2.8 SSW 28 39 15 21 1012.7 - 0.0
23/10:30pm 21.6 18.9 16.5 73 3.1 SSW 26 35 14 19 1012.8 - 0.0
23/10:00pm 21.8 19.2 16.0 69 3.5 SW 24 35 13 19 1012.8 - 0.0
23/09:30pm 22.0 19.3 15.5 66 3.9 SW 24 32 13 17 1012.6 - 0.0
23/09:00pm 22.2 19.0 15.3 65 4.1 SW 26 35 14 19 1012.6 1012.5 0.0
23/08:30pm 22.4 18.8 15.2 63 4.3 SSW 28 33 15 18 1012.3 - 0.0
23/08:00pm 22.8 19.0 14.7 60 4.8 SSW 28 39 15 21 1012.0 - 0.0
23/07:30pm 23.3 19.4 14.5 57 5.2 SW 28 35 15 19 1011.7 - 0.0
23/07:00pm 24.1 20.5 14.3 54 5.8 SSW 26 37 14 20 1011.5 - 0.0
23/06:30pm 25.5 21.2 13.2 46 7.2 SSW 28 33 15 18 1011.1 - 0.0
23/06:00pm 27.0 22.5 12.6 41 8.4 SSW 28 35 15 19 1010.7 1010.6 0.0
23/05:30pm 28.2 23.4 11.5 35 9.6 SSW 28 37 15 20 1010.4 - 0.0
23/05:00pm 28.8 23.4 10.9 33 10.2 SSW 30 43 16 23 1010.3 - 0.0
23/04:30pm 30.5 24.9 10.3 28 11.5 SSW 30 41 16 22 1010.2 - 0.0
23/04:00pm 30.8 24.9 9.2 26 12.1 SSW 30 44 16 24 1010.2 - 0.0
23/03:30pm 31.7 25.8 7.4 22 13.3 S 28 32 15 17 1010.3 - 0.0
23/03:00pm 32.0 27.2 7.3 21 13.5 SSW 22 32 12 17 1010.5 1010.4 0.0
23/02:30pm 32.6 27.2 6.3 19 14.2 SW 24 32 13 17 1010.6 - 0.0
23/02:00pm 32.8 26.8 7.0 20 14.1 SW 28 41 15 22 1010.7 - 0.0
23/01:30pm 33.0 26.9 6.4 19 14.4 SW 28 35 15 19 1010.7 - 0.0
23/01:00pm 31.9 26.7 3.8 17 14.5 SSW 20 33 11 18 1010.8 - 0.0
23/12:30pm 31.4 25.9 4.2 18 14.1 SW 22 30 12 16 1011.1 - 0.0
23/12:00pm 30.8 25.6 5.3 20 13.4 S 22 26 12 14 1011.5 1011.4 0.0
23/11:30am 30.8 26.2 6.6 22 13.0 SSW 20 32 11 17 1012.0 - 0.0
23/11:00am 29.3 24.9 7.5 25 11.8 SW 20 39 11 21 1012.4 - 0.0
23/10:30am 28.8 24.2 8.0 27 11.3 S 22 32 12 17 1012.7 - 0.0
23/10:00am 26.8 21.5 8.6 31 9.9 S 26 37 14 20 1013.1 - 0.0
23/09:30am 26.4 21.4 9.5 34 9.3 S 26 35 14 19 1013.2 - 0.0
23/09:00am 25.0 19.7 9.7 38 8.4 S 28 37 15 20 1013.6 1013.5 0.0
23/08:30am 23.4 18.4 10.8 45 7.0 S 28 37 15 20 1013.7 - 0.0
23/08:00am 22.5 17.1 10.9 48 6.4 S 30 39 16 21 1013.7 - 0.0
23/07:30am 21.3 15.4 11.2 52 5.6 S 33 43 18 23 1013.4 - 0.0
23/07:00am 20.4 15.6 11.8 57 4.8 S 28 33 15 18 1013.4 - 0.0
23/06:30am 18.7 15.5 12.0 65 3.7 SSW 20 26 11 14 1012.9 - 0.0
23/06:00am 17.5 14.8 11.8 69 3.1 SSW 17 22 9 12 1012.7 1012.6 0.0
23/05:30am 17.5 14.2 11.6 68 3.2 SSW 20 28 11 15 1012.3 - 0.0
23/05:00am 17.7 14.6 11.7 68 3.3 SSW 19 24 10 13 1012.1 - 0.0
23/04:30am 18.1 14.5 11.9 67 3.4 SSW 22 32 12 17 1011.7 - 0.0
23/04:00am 18.3 15.3 12.4 68 3.3 SSW 20 32 11 17 1011.6 - 0.0
23/03:30am 18.7 15.7 12.6 67 3.4 SSW 20 26 11 14 1011.5 - 0.0
23/03:00am 19.0 16.1 12.8 67 3.5 SSW 20 30 11 16 1011.5 1011.4 0.0
23/02:30am 19.1 16.0 13.5 70 3.2 SSW 22 30 12 16 1011.5 - 0.0
23/02:00am 19.2 16.1 14.4 74 2.8 SSW 24 32 13 17 1011.5 - 0.0
23/01:30am 19.6 16.5 14.6 73 2.9 SSW 24 32 13 17 1011.6 - 0.0
23/01:00am 19.5 16.4 14.5 73 2.9 SSW 24 35 13 19 1011.8 - 0.0
23/12:30am 19.7 17.5 14.9 74 2.8 SSW 20 28 11 15 1012.3 - 0.0
23/12:00am 20.0 17.1 15.1 73 2.9 SSW 24 32 13 17 1012.2 1012.1 0.0
 
Date/Time
WST
Temp
°C
App
Temp
°C
Dew
Point
Rel
Hum
%
Delta-T
°C
Wind Press
QNH
hPa
Press
MSL
hPa
Rain
since 9 am
mm
Dir
 
Spd
km/h
Gust
km/h
Spd
kts
Gust
kts
22/11:30pm 20.3 17.7 14.8 70 3.2 SSW 22 28 12 15 1012.3 - 0.0
22/11:00pm 20.5 17.5 14.7 69 3.4 SSW 24 33 13 18 1012.4 - 0.0
22/10:30pm 20.8 17.3 14.5 67 3.7 SSW 26 33 14 18 1012.7 - 0.0
22/10:00pm 21.2 17.6 14.3 64 4.0 SSW 26 35 14 19 1012.8 - 0.0
22/09:30pm 21.6 17.6 14.0 62 4.4 SSW 28 35 15 19 1012.6 - 0.0
22/09:00pm 21.7 17.3 14.0 61 4.5 SSW 30 43 16 23 1012.3 1012.2 0.0
22/08:30pm 22.0 17.2 14.1 61 4.6 SSW 32 43 17 23 1012.2 - 0.0
22/08:00pm 22.2 17.7 14.9 63 4.3 SSW 32 41 17 22 1011.9 - 0.0
22/07:30pm 22.6 18.3 15.8 65 4.1 SSW 33 48 18 26 1011.6 - 0.0
22/07:00pm 23.5 18.1 15.1 59 5.0 SSW 37 48 20 26 1011.3 - 0.0
22/06:45pm 24.0 19.9 14.8 56 5.5 SSW 30 48 16 26 1011.2 - 0.0
22/06:30pm 24.6 19.8 14.7 54 5.9 SW 33 46 18 25 1011.1 - 0.0
22/06:00pm 25.9 20.7 14.5 49 6.8 SSW 35 46 19 25 1010.8 1010.7 0.0
22/05:30pm 27.9 22.8 13.6 41 8.5 SSW 33 44 18 24 1010.4 - 0.0
22/05:00pm 29.6 24.2 12.9 35 9.9 SSW 33 41 18 22 1010.2 - 0.0
22/04:30pm 30.8 25.2 11.6 30 11.2 SSW 32 43 17 23 1010.0 - 0.0
22/04:00pm 31.3 25.6 11.1 29 11.7 SSW 32 50 17 27 1009.9 - 0.0
22/03:51pm 30.9 25.2 11.0 29 11.5 SSW 32 50 17 27 1009.9 - 0.0
22/03:30pm 32.0 26.6 11.0 27 12.2 SSW 30 39 16 21 1010.1 - 0.0
22/03:00pm 32.7 27.7 11.1 26 12.6 SSW 28 43 15 23 1010.2 1010.1 0.0
22/02:30pm 33.3 28.1 10.2 24 13.3 S 28 39 15 21 1010.2 - 0.0
22/02:00pm 34.2 29.0 10.4 23 13.8 SSW 28 39 15 21 1010.3 - 0.0
22/01:30pm 33.9 29.4 8.5 21 14.3 S 22 35 12 19 1010.6 - 0.0
22/01:00pm 32.9 28.9 6.6 19 14.3 S 17 32 9 17 1010.8 - 0.0
22/12:30pm 31.2 26.7 6.1 20 13.4 SSW 19 32 10 17 1011.2 - 0.0
22/12:00pm 31.5 26.8 7.6 22 13.1 SSW 22 33 12 18 1011.6 1011.5 0.0
22/11:30am 30.0 26.0 9.0 27 11.7 S 20 30 11 16 1012.2 - 0.0
22/11:00am 29.4 24.8 9.6 29 11.1 S 24 37 13 20 1012.5 - 0.0
22/10:30am 28.3 23.6 10.7 33 10.0 SSE 26 32 14 17 1013.0 - 0.0
22/10:00am 27.3 24.1 11.8 38 8.9 S 20 32 11 17 1013.2 - 0.0
22/09:30am 26.4 22.6 12.4 41 8.1 S 24 37 13 20 1013.5 - 0.0
22/09:00am 25.7 20.9 12.8 44 7.5 S 30 37 16 20 1013.7 1013.6 0.0
22/08:30am 23.9 19.8 13.8 53 5.9 S 28 37 15 20 1013.9 - 0.0
22/08:00am 22.8 18.7 13.9 57 5.2 S 28 39 15 21 1013.6 - 0.0
22/07:30am 22.1 17.4 14.4 61 4.5 S 32 43 17 23 1013.6 - 0.0
22/07:00am 20.7 18.1 14.9 69 3.4 SSW 22 30 12 16 1013.4 - 0.0
22/06:30am 18.9 17.0 15.1 78 2.2 SSW 19 24 10 13 1013.2 - 0.0
22/06:00am 17.7 15.8 15.1 85 1.5 SSW 19 24 10 13 1012.7 1012.6 0.0
22/05:30am 17.4 15.4 15.0 86 1.4 SSW 19 26 10 14 1012.5 - 0.0
22/05:00am 17.6 15.4 15.0 85 1.5 SSW 20 28 11 15 1012.1 - 0.0
22/04:30am 17.9 15.3 15.0 83 1.7 SSW 22 28 12 15 1011.8 - 0.0
22/04:00am 18.1 15.5 15.0 82 1.8 SSW 22 28 12 15 1011.6 - 0.0
22/03:30am 18.2 16.0 14.9 81 1.9 SSW 20 26 11 14 1011.6 - 0.0
22/03:00am 18.6 16.0 15.0 79 2.1 SSW 22 28 12 15 1011.5 1011.4 0.0
22/02:30am 19.1 16.2 15.0 77 2.4 SSW 24 33 13 18 1011.8 - 0.0
22/02:00am 19.3 16.1 15.2 77 2.4 SSW 26 35 14 19 1011.8 - 0.0
22/01:30am 19.5 16.3 15.4 77 2.4 SSW 26 33 14 18 1011.6 - 0.0
22/01:00am 19.6 16.9 15.5 77 2.4 SSW 24 32 13 17 1011.8 - 0.0
22/12:30am 20.0 17.3 15.6 76 2.6 SSW 24 33 13 18 1012.0 - 0.0
22/12:00am 20.2 16.8 15.8 76 2.6 SSW 28 39 15 21 1012.0 1011.9 0.0
 
Date/Time
WST
Temp
°C
App
Temp
°C
Dew
Point
Rel
Hum
%
Delta-T
°C
Wind Press
QNH
hPa
Press
MSL
hPa
Rain
since 9 am
mm
Dir
 
Spd
km/h
Gust
km/h
Spd
kts
Gust
kts
21/11:30pm 20.6 17.2 15.9 74 2.8 SSW 28 35 15 19 1012.2 - 0.0
21/11:00pm 20.8 16.9 15.6 72 3.1 SSW 30 39 16 21 1012.3 - 0.0
21/10:30pm 21.1 17.2 15.6 71 3.3 SSW 30 44 16 24 1012.4 - 0.0
21/10:00pm 21.4 17.9 15.5 69 3.5 SW 28 43 15 23 1012.5 - 0.0
21/09:30pm 21.6 18.1 15.4 68 3.7 SW 28 39 15 21 1012.4 - 0.0
21/09:00pm 21.7 18.2 15.5 68 3.7 SW 28 39 15 21 1012.4 1012.3 0.0
21/08:30pm 21.9 18.0 15.5 67 3.8 SW 30 37 16 20 1012.0 - 0.0

Other Formats:

Comma delimited format used in spreadsheet applications
http://www.bom.gov.au/fwo/IDW60801/IDW60801.94302.axf

JavaScript Object Notation format (JSON) in row-major order
http://www.bom.gov.au/fwo/IDW60801/IDW60801.94302.json